Terminal Aerodrome Forecast
Issued by NWS Jackson, MS

Home | Current Version | Previous Version | Text Only | Print | Product List | Glossary On
Versions: 1 2 3 4 5 6 7 8 9 10 11 12 13 14
000
FTUS44 KJAN 241222 AAA
TAFJAN
TAF AMD
KJAN 241222Z 2412/2512 14010G19KT P6SM BKN007
     FM241400 14014G19KT P6SM BKN025
     FM241600 14018G24KT P6SM BKN035
     FM241900 15016G22KT P6SM VCTS SCT040CB BKN250
     FM242200 15020G30KT 1SM +TSRA BR OVC030CB
     FM250000 14013KT 4SM -RA BR VCTS SCT035CB BKN100
     FM250500 14013KT P6SM OVC015
     FM250800 15013KT P6SM OVC007=

USA.gov is the U.S. government's official web portal to all federal, state and local government web resources and services.